sensor_id;sensor_type;location;lat;lon;timestamp;P1;durP1;ratioP1;P2;durP2;ratioP2
17598;SDS011;8918;52.092;5.232;2023-01-13T00:00:10;23.23;;;4.50;;
17598;SDS011;8918;52.092;5.232;2023-01-13T00:02:36;22.37;;;4.23;;
17598;SDS011;8918;52.092;5.232;2023-01-13T00:05:02;21.20;;;4.37;;
17598;SDS011;8918;52.092;5.232;2023-01-13T00:07:28;21.50;;;4.43;;
17598;SDS011;8918;52.092;5.232;2023-01-13T00:09:54;25.47;;;4.60;;
17598;SDS011;8918;52.092;5.232;2023-01-13T00:12:19;19.77;;;4.77;;
17598;SDS011;8918;52.092;5.232;2023-01-13T00:14:45;20.77;;;4.97;;
17598;SDS011;8918;52.092;5.232;2023-01-13T00:17:10;24.93;;;4.33;;
17598;SDS011;8918;52.092;5.232;2023-01-13T00:19:36;27.13;;;5.20;;
17598;SDS011;8918;52.092;5.232;2023-01-13T00:22:02;20.03;;;4.63;;
17598;SDS011;8918;52.092;5.232;2023-01-13T00:24:27;27.00;;;5.17;;
17598;SDS011;8918;52.092;5.232;2023-01-13T00:26:53;24.23;;;4.80;;
17598;SDS011;8918;52.092;5.232;2023-01-13T00:29:18;24.43;;;4.77;;
17598;SDS011;8918;52.092;5.232;2023-01-13T00:31:44;25.93;;;4.40;;
17598;SDS011;8918;52.092;5.232;2023-01-13T00:34:10;32.60;;;6.43;;
17598;SDS011;8918;52.092;5.232;2023-01-13T00:36:35;21.23;;;4.60;;
17598;SDS011;8918;52.092;5.232;2023-01-13T00:39:01;25.57;;;4.10;;
17598;SDS011;8918;52.092;5.232;2023-01-13T00:41:27;26.60;;;4.83;;
17598;SDS011;8918;52.092;5.232;2023-01-13T00:44:12;24.23;;;4.63;;
17598;SDS011;8918;52.092;5.232;2023-01-13T00:46:38;25.77;;;4.70;;
17598;SDS011;8918;52.092;5.232;2023-01-13T00:49:03;27.80;;;4.77;;
17598;SDS011;8918;52.092;5.232;2023-01-13T00:51:29;21.90;;;4.70;;
17598;SDS011;8918;52.092;5.232;2023-01-13T00:53:54;25.67;;;5.03;;
17598;SDS011;8918;52.092;5.232;2023-01-13T00:56:23;23.50;;;5.70;;
17598;SDS011;8918;52.092;5.232;2023-01-13T00:58:49;20.17;;;4.63;;
17598;SDS011;8918;52.092;5.232;2023-01-13T01:01:20;21.20;;;4.33;;
17598;SDS011;8918;52.092;5.232;2023-01-13T01:03:47;29.13;;;5.17;;
17598;SDS011;8918;52.092;5.232;2023-01-13T01:06:17;31.23;;;4.60;;
17598;SDS011;8918;52.092;5.232;2023-01-13T01:08:45;21.57;;;4.23;;
17598;SDS011;8918;52.092;5.232;2023-01-13T01:11:12;18.83;;;4.33;;
17598;SDS011;8918;52.092;5.232;2023-01-13T01:13:43;26.07;;;4.20;;
17598;SDS011;8918;52.092;5.232;2023-01-13T01:16:10;27.20;;;4.50;;
17598;SDS011;8918;52.092;5.232;2023-01-13T01:18:39;25.73;;;5.40;;
17598;SDS011;8918;52.092;5.232;2023-01-13T01:21:07;27.10;;;4.27;;
17598;SDS011;8918;52.092;5.232;2023-01-13T01:23:33;22.23;;;4.90;;
17598;SDS011;8918;52.092;5.232;2023-01-13T01:26:06;29.07;;;5.03;;
17598;SDS011;8918;52.092;5.232;2023-01-13T01:28:42;25.47;;;4.53;;
17598;SDS011;8918;52.092;5.232;2023-01-13T01:31:09;24.37;;;4.63;;
17598;SDS011;8918;52.092;5.232;2023-01-13T01:33:39;20.77;;;4.70;;
17598;SDS011;8918;52.092;5.232;2023-01-13T01:36:05;20.17;;;4.43;;
17598;SDS011;8918;52.092;5.232;2023-01-13T01:38:31;29.57;;;4.77;;
17598;SDS011;8918;52.092;5.232;2023-01-13T01:40:57;20.87;;;4.40;;
17598;SDS011;8918;52.092;5.232;2023-01-13T01:43:40;26.00;;;4.70;;
17598;SDS011;8918;52.092;5.232;2023-01-13T01:46:40;27.90;;;4.73;;
17598;SDS011;8918;52.092;5.232;2023-01-13T01:49:28;26.37;;;3.77;;
17598;SDS011;8918;52.092;5.232;2023-01-13T01:52:05;21.83;;;4.90;;
17598;SDS011;8918;52.092;5.232;2023-01-13T01:57:19;24.50;;;4.77;;
17598;SDS011;8918;52.092;5.232;2023-01-13T01:59:50;27.43;;;4.73;;
17598;SDS011;8918;52.092;5.232;2023-01-13T02:02:16;23.00;;;4.40;;
17598;SDS011;8918;52.092;5.232;2023-01-13T02:04:44;27.00;;;4.17;;
17598;SDS011;8918;52.092;5.232;2023-01-13T02:07:25;29.53;;;5.80;;
17598;SDS011;8918;52.092;5.232;2023-01-13T02:09:55;26.30;;;5.27;;
17598;SDS011;8918;52.092;5.232;2023-01-13T02:12:22;25.03;;;4.90;;
17598;SDS011;8918;52.092;5.232;2023-01-13T02:14:57;27.67;;;4.70;;
17598;SDS011;8918;52.092;5.232;2023-01-13T02:20:37;26.53;;;4.70;;
17598;SDS011;8918;52.092;5.232;2023-01-13T02:32:32;18.50;;;4.80;;
17598;SDS011;8918;52.092;5.232;2023-01-13T02:35:11;25.37;;;4.87;;
17598;SDS011;8918;52.092;5.232;2023-01-13T02:37:46;31.43;;;5.50;;
17598;SDS011;8918;52.092;5.232;2023-01-13T02:40:19;28.37;;;5.47;;
17598;SDS011;8918;52.092;5.232;2023-01-13T02:45:55;25.33;;;4.70;;
17598;SDS011;8918;52.092;5.232;2023-01-13T02:48:25;29.23;;;5.40;;
17598;SDS011;8918;52.092;5.232;2023-01-13T02:50:55;33.60;;;5.40;;
17598;SDS011;8918;52.092;5.232;2023-01-13T02:54:00;26.93;;;4.57;;
17598;SDS011;8918;52.092;5.232;2023-01-13T02:56:21;26.67;;;4.93;;
17598;SDS011;8918;52.092;5.232;2023-01-13T02:58:48;27.20;;;5.00;;
17598;SDS011;8918;52.092;5.232;2023-01-13T03:01:15;21.50;;;5.37;;
17598;SDS011;8918;52.092;5.232;2023-01-13T03:03:41;21.50;;;4.33;;
17598;SDS011;8918;52.092;5.232;2023-01-13T03:06:30;27.70;;;5.53;;
17598;SDS011;8918;52.092;5.232;2023-01-13T03:09:11;25.47;;;5.37;;
17598;SDS011;8918;52.092;5.232;2023-01-13T03:12:17;27.90;;;5.30;;
17598;SDS011;8918;52.092;5.232;2023-01-13T03:15:36;28.63;;;4.93;;
17598;SDS011;8918;52.092;5.232;2023-01-13T03:17:53;23.30;;;4.50;;
17598;SDS011;8918;52.092;5.232;2023-01-13T03:20:28;20.10;;;4.83;;
17598;SDS011;8918;52.092;5.232;2023-01-13T03:23:02;28.97;;;5.20;;
17598;SDS011;8918;52.092;5.232;2023-01-13T03:25:59;23.30;;;4.53;;
17598;SDS011;8918;52.092;5.232;2023-01-13T03:28:27;24.13;;;4.23;;
17598;SDS011;8918;52.092;5.232;2023-01-13T03:30:58;24.00;;;4.40;;
17598;SDS011;8918;52.092;5.232;2023-01-13T03:33:52;24.33;;;4.80;;
17598;SDS011;8918;52.092;5.232;2023-01-13T03:36:22;24.73;;;4.53;;
17598;SDS011;8918;52.092;5.232;2023-01-13T03:38:53;21.20;;;4.37;;
17598;SDS011;8918;52.092;5.232;2023-01-13T03:41:27;23.23;;;3.93;;
17598;SDS011;8918;52.092;5.232;2023-01-13T03:49:26;22.07;;;4.10;;
17598;SDS011;8918;52.092;5.232;2023-01-13T03:52:15;24.43;;;4.33;;
17598;SDS011;8918;52.092;5.232;2023-01-13T03:54:56;26.67;;;4.23;;
17598;SDS011;8918;52.092;5.232;2023-01-13T03:57:27;17.60;;;3.27;;
17598;SDS011;8918;52.092;5.232;2023-01-13T03:59:56;16.20;;;3.50;;
17598;SDS011;8918;52.092;5.232;2023-01-13T04:02:27;20.27;;;4.10;;
17598;SDS011;8918;52.092;5.232;2023-01-13T04:10:17;14.20;;;2.97;;
17598;SDS011;8918;52.092;5.232;2023-01-13T04:13:09;14.73;;;2.90;;
17598;SDS011;8918;52.092;5.232;2023-01-13T04:15:41;16.70;;;2.67;;
17598;SDS011;8918;52.092;5.232;2023-01-13T04:18:10;14.07;;;2.93;;
17598;SDS011;8918;52.092;5.232;2023-01-13T04:20:36;12.43;;;2.40;;
17598;SDS011;8918;52.092;5.232;2023-01-13T04:23:03;13.10;;;2.70;;
17598;SDS011;8918;52.092;5.232;2023-01-13T04:25:29;11.00;;;2.10;;
17598;SDS011;8918;52.092;5.232;2023-01-13T04:27:55;10.97;;;2.53;;
17598;SDS011;8918;52.092;5.232;2023-01-13T04:30:20;12.07;;;2.37;;
17598;SDS011;8918;52.092;5.232;2023-01-13T04:32:46;9.40;;;2.30;;
17598;SDS011;8918;52.092;5.232;2023-01-13T04:35:12;12.80;;;2.03;;
17598;SDS011;8918;52.092;5.232;2023-01-13T04:37:37;9.93;;;2.00;;
17598;SDS011;8918;52.092;5.232;2023-01-13T04:40:03;6.97;;;1.80;;
17598;SDS011;8918;52.092;5.232;2023-01-13T04:42:29;12.87;;;2.20;;
17598;SDS011;8918;52.092;5.232;2023-01-13T04:44:55;7.27;;;1.50;;
17598;SDS011;8918;52.092;5.232;2023-01-13T04:47:20;9.30;;;1.77;;
17598;SDS011;8918;52.092;5.232;2023-01-13T04:49:46;13.33;;;1.90;;
17598;SDS011;8918;52.092;5.232;2023-01-13T04:52:11;13.33;;;2.23;;
17598;SDS011;8918;52.092;5.232;2023-01-13T04:54:37;11.47;;;2.00;;
17598;SDS011;8918;52.092;5.232;2023-01-13T04:57:02;10.30;;;2.00;;
17598;SDS011;8918;52.092;5.232;2023-01-13T04:59:29;6.90;;;1.87;;
17598;SDS011;8918;52.092;5.232;2023-01-13T05:01:55;13.33;;;1.87;;
17598;SDS011;8918;52.092;5.232;2023-01-13T05:04:20;11.13;;;2.17;;
17598;SDS011;8918;52.092;5.232;2023-01-13T05:06:46;7.73;;;1.97;;
17598;SDS011;8918;52.092;5.232;2023-01-13T05:09:12;11.23;;;2.10;;
17598;SDS011;8918;52.092;5.232;2023-01-13T05:11:39;13.40;;;2.20;;
17598;SDS011;8918;52.092;5.232;2023-01-13T05:14:24;10.87;;;2.00;;
17598;SDS011;8918;52.092;5.232;2023-01-13T05:17:08;10.80;;;2.10;;
17598;SDS011;8918;52.092;5.232;2023-01-13T05:19:42;11.77;;;2.73;;
17598;SDS011;8918;52.092;5.232;2023-01-13T05:22:08;13.90;;;2.37;;
17598;SDS011;8918;52.092;5.232;2023-01-13T05:24:52;11.93;;;2.20;;
17598;SDS011;8918;52.092;5.232;2023-01-13T05:27:36;11.57;;;3.17;;
17598;SDS011;8918;52.092;5.232;2023-01-13T05:30:02;15.67;;;2.60;;
17598;SDS011;8918;52.092;5.232;2023-01-13T05:32:29;11.43;;;2.77;;
17598;SDS011;8918;52.092;5.232;2023-01-13T05:34:55;14.60;;;3.00;;
17598;SDS011;8918;52.092;5.232;2023-01-13T05:37:20;11.20;;;2.23;;
17598;SDS011;8918;52.092;5.232;2023-01-13T05:39:46;10.33;;;2.40;;
17598;SDS011;8918;52.092;5.232;2023-01-13T05:42:31;16.30;;;2.57;;
17598;SDS011;8918;52.092;5.232;2023-01-13T05:45:15;17.13;;;2.77;;
17598;SDS011;8918;52.092;5.232;2023-01-13T05:47:41;14.27;;;2.73;;
17598;SDS011;8918;52.092;5.232;2023-01-13T05:50:07;16.73;;;2.97;;
17598;SDS011;8918;52.092;5.232;2023-01-13T05:52:33;13.73;;;2.73;;
17598;SDS011;8918;52.092;5.232;2023-01-13T05:54:59;20.10;;;3.40;;
17598;SDS011;8918;52.092;5.232;2023-01-13T05:57:24;13.10;;;2.90;;
17598;SDS011;8918;52.092;5.232;2023-01-13T05:59:50;16.17;;;3.20;;
17598;SDS011;8918;52.092;5.232;2023-01-13T06:02:15;12.67;;;3.00;;
17598;SDS011;8918;52.092;5.232;2023-01-13T06:04:41;16.60;;;2.90;;
17598;SDS011;8918;52.092;5.232;2023-01-13T06:07:06;14.80;;;3.00;;
17598;SDS011;8918;52.092;5.232;2023-01-13T06:09:32;21.17;;;3.00;;
17598;SDS011;8918;52.092;5.232;2023-01-13T06:11:57;14.10;;;2.70;;
17598;SDS011;8918;52.092;5.232;2023-01-13T06:14:23;14.43;;;2.80;;
17598;SDS011;8918;52.092;5.232;2023-01-13T06:16:49;15.33;;;2.83;;
17598;SDS011;8918;52.092;5.232;2023-01-13T06:19:14;16.37;;;3.00;;
17598;SDS011;8918;52.092;5.232;2023-01-13T06:21:40;18.00;;;3.33;;
17598;SDS011;8918;52.092;5.232;2023-01-13T06:24:06;15.63;;;3.10;;
17598;SDS011;8918;52.092;5.232;2023-01-13T06:26:37;12.70;;;2.80;;
17598;SDS011;8918;52.092;5.232;2023-01-13T06:29:03;16.23;;;2.67;;
17598;SDS011;8918;52.092;5.232;2023-01-13T06:31:30;12.67;;;2.67;;
17598;SDS011;8918;52.092;5.232;2023-01-13T06:34:06;12.13;;;2.80;;
17598;SDS011;8918;52.092;5.232;2023-01-13T06:36:39;13.43;;;3.00;;
17598;SDS011;8918;52.092;5.232;2023-01-13T06:39:09;15.80;;;2.60;;
17598;SDS011;8918;52.092;5.232;2023-01-13T06:41:38;13.97;;;3.07;;
17598;SDS011;8918;52.092;5.232;2023-01-13T06:44:22;18.17;;;3.33;;
17598;SDS011;8918;52.092;5.232;2023-01-13T06:46:48;18.27;;;3.63;;
17598;SDS011;8918;52.092;5.232;2023-01-13T06:49:17;15.97;;;3.20;;
17598;SDS011;8918;52.092;5.232;2023-01-13T06:51:43;15.40;;;2.50;;
17598;SDS011;8918;52.092;5.232;2023-01-13T06:54:10;8.90;;;2.50;;
17598;SDS011;8918;52.092;5.232;2023-01-13T06:56:36;23.13;;;2.87;;
17598;SDS011;8918;52.092;5.232;2023-01-13T06:59:01;17.20;;;3.33;;
17598;SDS011;8918;52.092;5.232;2023-01-13T07:01:27;16.50;;;3.13;;
17598;SDS011;8918;52.092;5.232;2023-01-13T07:03:53;17.47;;;3.10;;
17598;SDS011;8918;52.092;5.232;2023-01-13T07:06:18;13.90;;;3.17;;
17598;SDS011;8918;52.092;5.232;2023-01-13T07:08:44;14.33;;;3.10;;
17598;SDS011;8918;52.092;5.232;2023-01-13T07:11:09;15.13;;;3.07;;
17598;SDS011;8918;52.092;5.232;2023-01-13T07:13:35;14.33;;;2.97;;
17598;SDS011;8918;52.092;5.232;2023-01-13T07:16:19;13.80;;;2.90;;
17598;SDS011;8918;52.092;5.232;2023-01-13T07:18:44;19.93;;;3.20;;
17598;SDS011;8918;52.092;5.232;2023-01-13T07:21:10;18.73;;;3.63;;
17598;SDS011;8918;52.092;5.232;2023-01-13T07:23:38;17.33;;;2.70;;
17598;SDS011;8918;52.092;5.232;2023-01-13T07:26:04;16.60;;;2.93;;
17598;SDS011;8918;52.092;5.232;2023-01-13T07:28:31;14.93;;;2.93;;
17598;SDS011;8918;52.092;5.232;2023-01-13T07:30:57;21.10;;;3.60;;
17598;SDS011;8918;52.092;5.232;2023-01-13T07:33:22;17.97;;;3.53;;
17598;SDS011;8918;52.092;5.232;2023-01-13T07:35:54;16.53;;;3.20;;
17598;SDS011;8918;52.092;5.232;2023-01-13T07:38:22;21.03;;;4.03;;
17598;SDS011;8918;52.092;5.232;2023-01-13T07:40:47;20.87;;;3.57;;
17598;SDS011;8918;52.092;5.232;2023-01-13T07:43:13;15.27;;;3.47;;
17598;SDS011;8918;52.092;5.232;2023-01-13T07:45:57;17.30;;;3.17;;
17598;SDS011;8918;52.092;5.232;2023-01-13T07:48:24;15.80;;;4.00;;
17598;SDS011;8918;52.092;5.232;2023-01-13T07:50:50;14.00;;;2.97;;
17598;SDS011;8918;52.092;5.232;2023-01-13T07:53:16;15.30;;;3.80;;
17598;SDS011;8918;52.092;5.232;2023-01-13T07:55:42;10.60;;;2.83;;
17598;SDS011;8918;52.092;5.232;2023-01-13T07:58:08;15.73;;;3.73;;
17598;SDS011;8918;52.092;5.232;2023-01-13T08:00:35;13.77;;;3.90;;
17598;SDS011;8918;52.092;5.232;2023-01-13T08:03:01;20.83;;;3.10;;
17598;SDS011;8918;52.092;5.232;2023-01-13T08:05:27;13.63;;;3.37;;
17598;SDS011;8918;52.092;5.232;2023-01-13T08:07:52;19.40;;;3.87;;
17598;SDS011;8918;52.092;5.232;2023-01-13T08:10:18;17.77;;;3.40;;
17598;SDS011;8918;52.092;5.232;2023-01-13T08:12:44;17.90;;;3.57;;
17598;SDS011;8918;52.092;5.232;2023-01-13T08:15:28;17.43;;;3.63;;
17598;SDS011;8918;52.092;5.232;2023-01-13T08:17:55;21.97;;;3.30;;
17598;SDS011;8918;52.092;5.232;2023-01-13T08:20:22;17.00;;;3.17;;
17598;SDS011;8918;52.092;5.232;2023-01-13T08:22:47;17.90;;;3.37;;
17598;SDS011;8918;52.092;5.232;2023-01-13T08:25:13;16.87;;;3.73;;
17598;SDS011;8918;52.092;5.232;2023-01-13T08:27:39;17.23;;;3.60;;
17598;SDS011;8918;52.092;5.232;2023-01-13T08:30:04;17.67;;;3.13;;
17598;SDS011;8918;52.092;5.232;2023-01-13T08:32:30;14.13;;;3.70;;
17598;SDS011;8918;52.092;5.232;2023-01-13T08:34:56;15.20;;;3.17;;
17598;SDS011;8918;52.092;5.232;2023-01-13T08:37:22;15.70;;;3.23;;
17598;SDS011;8918;52.092;5.232;2023-01-13T08:39:47;16.83;;;3.20;;
17598;SDS011;8918;52.092;5.232;2023-01-13T08:42:13;15.93;;;3.20;;
17598;SDS011;8918;52.092;5.232;2023-01-13T08:44:38;18.97;;;3.57;;
17598;SDS011;8918;52.092;5.232;2023-01-13T08:47:04;17.37;;;3.90;;
17598;SDS011;8918;52.092;5.232;2023-01-13T08:49:30;15.50;;;3.30;;
17598;SDS011;8918;52.092;5.232;2023-01-13T08:51:56;18.20;;;3.37;;
17598;SDS011;8918;52.092;5.232;2023-01-13T08:54:22;17.13;;;3.57;;
17598;SDS011;8918;52.092;5.232;2023-01-13T08:56:47;16.63;;;3.37;;
17598;SDS011;8918;52.092;5.232;2023-01-13T08:59:14;16.47;;;3.90;;
17598;SDS011;8918;52.092;5.232;2023-01-13T09:01:41;20.17;;;3.23;;
17598;SDS011;8918;52.092;5.232;2023-01-13T09:04:11;18.73;;;3.73;;
17598;SDS011;8918;52.092;5.232;2023-01-13T09:06:41;16.23;;;3.20;;
17598;SDS011;8918;52.092;5.232;2023-01-13T09:09:07;22.07;;;4.07;;
17598;SDS011;8918;52.092;5.232;2023-01-13T09:11:33;14.87;;;3.43;;
17598;SDS011;8918;52.092;5.232;2023-01-13T09:14:20;22.27;;;3.47;;
17598;SDS011;8918;52.092;5.232;2023-01-13T09:16:47;22.33;;;4.27;;
17598;SDS011;8918;52.092;5.232;2023-01-13T09:19:13;11.73;;;2.80;;
17598;SDS011;8918;52.092;5.232;2023-01-13T09:21:39;14.30;;;2.90;;
17598;SDS011;8918;52.092;5.232;2023-01-13T09:24:04;18.93;;;3.37;;
17598;SDS011;8918;52.092;5.232;2023-01-13T09:26:31;14.37;;;3.40;;
17598;SDS011;8918;52.092;5.232;2023-01-13T09:28:56;15.97;;;3.83;;
17598;SDS011;8918;52.092;5.232;2023-01-13T09:31:22;18.10;;;3.70;;
17598;SDS011;8918;52.092;5.232;2023-01-13T09:33:47;19.00;;;3.70;;
17598;SDS011;8918;52.092;5.232;2023-01-13T09:36:31;15.90;;;3.93;;
17598;SDS011;8918;52.092;5.232;2023-01-13T09:38:57;23.60;;;3.80;;
17598;SDS011;8918;52.092;5.232;2023-01-13T09:41:23;19.23;;;3.20;;
17598;SDS011;8918;52.092;5.232;2023-01-13T09:44:22;18.30;;;3.43;;
17598;SDS011;8918;52.092;5.232;2023-01-13T09:46:52;14.80;;;2.90;;
17598;SDS011;8918;52.092;5.232;2023-01-13T09:49:32;21.87;;;3.97;;
17598;SDS011;8918;52.092;5.232;2023-01-13T09:52:03;16.83;;;3.10;;
17598;SDS011;8918;52.092;5.232;2023-01-13T09:54:57;19.23;;;3.37;;
17598;SDS011;8918;52.092;5.232;2023-01-13T09:57:27;17.47;;;3.40;;
17598;SDS011;8918;52.092;5.232;2023-01-13T09:59:57;17.03;;;4.00;;
17598;SDS011;8918;52.092;5.232;2023-01-13T10:08:12;19.53;;;3.67;;
17598;SDS011;8918;52.092;5.232;2023-01-13T10:13:14;15.00;;;3.40;;
17598;SDS011;8918;52.092;5.232;2023-01-13T10:24:06;13.13;;;3.50;;
17598;SDS011;8918;52.092;5.232;2023-01-13T10:28:59;20.93;;;4.13;;
17598;SDS011;8918;52.092;5.232;2023-01-13T10:31:25;16.23;;;3.33;;
17598;SDS011;8918;52.092;5.232;2023-01-13T10:34:00;18.40;;;3.67;;
17598;SDS011;8918;52.092;5.232;2023-01-13T10:36:30;21.70;;;3.77;;
17598;SDS011;8918;52.092;5.232;2023-01-13T10:39:05;15.43;;;3.40;;
17598;SDS011;8918;52.092;5.232;2023-01-13T10:41:33;15.40;;;3.27;;
17598;SDS011;8918;52.092;5.232;2023-01-13T10:44:01;24.33;;;4.90;;
17598;SDS011;8918;52.092;5.232;2023-01-13T10:46:48;20.77;;;3.10;;
17598;SDS011;8918;52.092;5.232;2023-01-13T10:52:00;14.03;;;3.10;;
17598;SDS011;8918;52.092;5.232;2023-01-13T10:54:26;14.17;;;2.60;;
17598;SDS011;8918;52.092;5.232;2023-01-13T10:59:45;14.60;;;3.20;;
17598;SDS011;8918;52.092;5.232;2023-01-13T11:12:36;11.57;;;3.00;;
17598;SDS011;8918;52.092;5.232;2023-01-13T11:15:19;16.33;;;3.17;;
17598;SDS011;8918;52.092;5.232;2023-01-13T11:17:48;14.20;;;3.13;;
17598;SDS011;8918;52.092;5.232;2023-01-13T11:20:25;15.53;;;3.00;;
17598;SDS011;8918;52.092;5.232;2023-01-13T11:22:58;11.17;;;2.70;;
17598;SDS011;8918;52.092;5.232;2023-01-13T11:25:32;12.97;;;2.97;;
17598;SDS011;8918;52.092;5.232;2023-01-13T11:33:58;13.57;;;3.50;;
17598;SDS011;8918;52.092;5.232;2023-01-13T11:36:39;9.33;;;2.50;;
17598;SDS011;8918;52.092;5.232;2023-01-13T11:39:19;12.50;;;2.87;;
17598;SDS011;8918;52.092;5.232;2023-01-13T11:42:02;14.80;;;2.60;;
17598;SDS011;8918;52.092;5.232;2023-01-13T11:47:25;12.37;;;3.00;;
17598;SDS011;8918;52.092;5.232;2023-01-13T11:49:52;11.07;;;2.60;;
17598;SDS011;8918;52.092;5.232;2023-01-13T11:52:20;9.60;;;2.73;;
17598;SDS011;8918;52.092;5.232;2023-01-13T11:55:00;17.37;;;2.97;;
17598;SDS011;8918;52.092;5.232;2023-01-13T12:03:48;15.47;;;2.83;;
17598;SDS011;8918;52.092;5.232;2023-01-13T12:06:33;14.20;;;2.67;;
17598;SDS011;8918;52.092;5.232;2023-01-13T12:14:38;8.40;;;2.80;;
17598;SDS011;8918;52.092;5.232;2023-01-13T12:17:16;10.37;;;2.47;;
17598;SDS011;8918;52.092;5.232;2023-01-13T12:19:51;11.63;;;2.27;;
17598;SDS011;8918;52.092;5.232;2023-01-13T12:22:22;11.73;;;2.40;;
17598;SDS011;8918;52.092;5.232;2023-01-13T12:24:57;13.10;;;2.47;;
17598;SDS011;8918;52.092;5.232;2023-01-13T12:30:25;11.03;;;2.37;;
17598;SDS011;8918;52.092;5.232;2023-01-13T12:33:02;13.03;;;2.90;;
17598;SDS011;8918;52.092;5.232;2023-01-13T12:35:51;10.40;;;2.13;;
17598;SDS011;8918;52.092;5.232;2023-01-13T12:38:26;10.10;;;2.63;;
17598;SDS011;8918;52.092;5.232;2023-01-13T12:40:59;10.07;;;2.50;;
17598;SDS011;8918;52.092;5.232;2023-01-13T12:43:29;14.30;;;2.37;;
17598;SDS011;8918;52.092;5.232;2023-01-13T12:48:44;7.50;;;2.23;;
17598;SDS011;8918;52.092;5.232;2023-01-13T12:51:25;10.47;;;2.70;;
17598;SDS011;8918;52.092;5.232;2023-01-13T12:53:53;12.50;;;2.53;;
17598;SDS011;8918;52.092;5.232;2023-01-13T12:58:48;8.67;;;2.80;;
17598;SDS011;8918;52.092;5.232;2023-01-13T13:01:14;13.07;;;2.47;;
17598;SDS011;8918;52.092;5.232;2023-01-13T13:03:40;16.63;;;3.00;;
17598;SDS011;8918;52.092;5.232;2023-01-13T13:06:27;13.83;;;2.33;;
17598;SDS011;8918;52.092;5.232;2023-01-13T13:09:01;10.90;;;2.10;;
17598;SDS011;8918;52.092;5.232;2023-01-13T13:14:14;13.47;;;2.50;;
17598;SDS011;8918;52.092;5.232;2023-01-13T13:17:00;15.00;;;2.40;;
17598;SDS011;8918;52.092;5.232;2023-01-13T13:29:52;16.27;;;2.73;;
17598;SDS011;8918;52.092;5.232;2023-01-13T13:32:55;11.10;;;2.73;;
17598;SDS011;8918;52.092;5.232;2023-01-13T13:41:21;9.90;;;2.20;;
17598;SDS011;8918;52.092;5.232;2023-01-13T13:47:03;13.73;;;2.40;;
17598;SDS011;8918;52.092;5.232;2023-01-13T13:52:17;6.97;;;1.90;;
17598;SDS011;8918;52.092;5.232;2023-01-13T13:54:44;10.77;;;2.30;;
17598;SDS011;8918;52.092;5.232;2023-01-13T13:57:18;10.17;;;2.10;;
17598;SDS011;8918;52.092;5.232;2023-01-13T13:59:56;10.50;;;2.27;;
17598;SDS011;8918;52.092;5.232;2023-01-13T14:02:26;13.70;;;3.03;;
17598;SDS011;8918;52.092;5.232;2023-01-13T14:05:08;10.30;;;2.40;;
17598;SDS011;8918;52.092;5.232;2023-01-13T14:07:46;10.57;;;2.17;;
17598;SDS011;8918;52.092;5.232;2023-01-13T14:10:24;11.30;;;2.30;;
17598;SDS011;8918;52.092;5.232;2023-01-13T14:13:00;6.90;;;1.93;;
17598;SDS011;8918;52.092;5.232;2023-01-13T14:15:36;15.37;;;2.80;;
17598;SDS011;8918;52.092;5.232;2023-01-13T14:18:04;9.77;;;2.40;;
17598;SDS011;8918;52.092;5.232;2023-01-13T14:20:36;11.87;;;2.50;;
17598;SDS011;8918;52.092;5.232;2023-01-13T14:23:02;10.17;;;2.40;;
17598;SDS011;8918;52.092;5.232;2023-01-13T14:25:36;14.10;;;2.43;;
17598;SDS011;8918;52.092;5.232;2023-01-13T14:28:15;17.50;;;2.70;;
17598;SDS011;8918;52.092;5.232;2023-01-13T14:30:42;12.73;;;2.50;;
17598;SDS011;8918;52.092;5.232;2023-01-13T14:33:13;8.00;;;2.30;;
17598;SDS011;8918;52.092;5.232;2023-01-13T14:38:38;10.73;;;2.60;;
17598;SDS011;8918;52.092;5.232;2023-01-13T14:41:20;12.53;;;2.47;;
17598;SDS011;8918;52.092;5.232;2023-01-13T14:43:48;7.77;;;1.80;;
17598;SDS011;8918;52.092;5.232;2023-01-13T14:46:15;10.20;;;1.97;;
17598;SDS011;8918;52.092;5.232;2023-01-13T14:48:42;14.40;;;2.50;;
17598;SDS011;8918;52.092;5.232;2023-01-13T14:51:11;8.47;;;2.20;;
17598;SDS011;8918;52.092;5.232;2023-01-13T14:53:45;16.33;;;2.60;;
17598;SDS011;8918;52.092;5.232;2023-01-13T15:02:01;16.20;;;3.00;;
17598;SDS011;8918;52.092;5.232;2023-01-13T15:04:47;8.03;;;2.23;;
17598;SDS011;8918;52.092;5.232;2023-01-13T15:07:16;14.43;;;2.67;;
17598;SDS011;8918;52.092;5.232;2023-01-13T15:09:51;11.50;;;2.30;;
17598;SDS011;8918;52.092;5.232;2023-01-13T15:12:21;10.20;;;2.93;;
17598;SDS011;8918;52.092;5.232;2023-01-13T15:14:53;14.17;;;2.37;;
17598;SDS011;8918;52.092;5.232;2023-01-13T15:17:20;8.83;;;2.40;;
17598;SDS011;8918;52.092;5.232;2023-01-13T15:19:46;11.60;;;2.00;;
17598;SDS011;8918;52.092;5.232;2023-01-13T15:22:11;8.50;;;2.37;;
17598;SDS011;8918;52.092;5.232;2023-01-13T15:24:37;11.77;;;2.30;;
17598;SDS011;8918;52.092;5.232;2023-01-13T15:27:03;15.80;;;2.93;;
17598;SDS011;8918;52.092;5.232;2023-01-13T15:29:38;12.53;;;3.60;;
17598;SDS011;8918;52.092;5.232;2023-01-13T15:32:04;10.07;;;2.10;;
17598;SDS011;8918;52.092;5.232;2023-01-13T15:34:29;12.47;;;2.60;;
17598;SDS011;8918;52.092;5.232;2023-01-13T15:36:55;12.93;;;2.47;;
17598;SDS011;8918;52.092;5.232;2023-01-13T15:39:21;12.23;;;2.63;;
17598;SDS011;8918;52.092;5.232;2023-01-13T15:41:46;14.77;;;2.77;;
17598;SDS011;8918;52.092;5.232;2023-01-13T15:44:30;13.70;;;3.00;;
17598;SDS011;8918;52.092;5.232;2023-01-13T15:47:15;15.57;;;2.87;;
17598;SDS011;8918;52.092;5.232;2023-01-13T15:49:44;11.13;;;2.50;;
17598;SDS011;8918;52.092;5.232;2023-01-13T15:52:20;10.87;;;2.40;;
17598;SDS011;8918;52.092;5.232;2023-01-13T15:54:47;11.90;;;2.60;;
17598;SDS011;8918;52.092;5.232;2023-01-13T15:59:50;14.50;;;2.70;;
17598;SDS011;8918;52.092;5.232;2023-01-13T16:02:19;12.37;;;2.67;;
17598;SDS011;8918;52.092;5.232;2023-01-13T16:04:46;11.50;;;2.20;;
17598;SDS011;8918;52.092;5.232;2023-01-13T16:07:16;10.60;;;2.83;;
17598;SDS011;8918;52.092;5.232;2023-01-13T16:09:43;12.33;;;2.47;;
17598;SDS011;8918;52.092;5.232;2023-01-13T16:12:09;16.23;;;4.07;;
17598;SDS011;8918;52.092;5.232;2023-01-13T16:14:35;13.33;;;5.07;;
17598;SDS011;8918;52.092;5.232;2023-01-13T16:17:01;9.63;;;3.10;;
17598;SDS011;8918;52.092;5.232;2023-01-13T16:19:28;13.47;;;3.27;;
17598;SDS011;8918;52.092;5.232;2023-01-13T16:21:53;10.10;;;2.33;;
17598;SDS011;8918;52.092;5.232;2023-01-13T16:24:19;11.00;;;2.43;;
17598;SDS011;8918;52.092;5.232;2023-01-13T16:26:44;9.97;;;2.73;;
17598;SDS011;8918;52.092;5.232;2023-01-13T16:29:10;10.20;;;2.70;;
17598;SDS011;8918;52.092;5.232;2023-01-13T16:31:36;11.50;;;2.60;;
17598;SDS011;8918;52.092;5.232;2023-01-13T16:34:03;15.03;;;2.70;;
17598;SDS011;8918;52.092;5.232;2023-01-13T16:36:34;9.33;;;2.80;;
17598;SDS011;8918;52.092;5.232;2023-01-13T16:39:01;11.50;;;3.07;;
17598;SDS011;8918;52.092;5.232;2023-01-13T16:41:27;10.97;;;2.70;;
17598;SDS011;8918;52.092;5.232;2023-01-13T16:43:53;12.00;;;2.90;;
17598;SDS011;8918;52.092;5.232;2023-01-13T16:46:23;8.40;;;2.63;;
17598;SDS011;8918;52.092;5.232;2023-01-13T16:48:51;10.17;;;2.27;;
17598;SDS011;8918;52.092;5.232;2023-01-13T16:51:18;15.10;;;3.53;;
17598;SDS011;8918;52.092;5.232;2023-01-13T16:53:45;15.90;;;3.17;;
17598;SDS011;8918;52.092;5.232;2023-01-13T16:56:22;12.17;;;3.60;;
17598;SDS011;8918;52.092;5.232;2023-01-13T16:58:50;10.33;;;3.57;;
17598;SDS011;8918;52.092;5.232;2023-01-13T17:01:18;16.00;;;3.97;;
17598;SDS011;8918;52.092;5.232;2023-01-13T17:03:45;11.53;;;2.60;;
17598;SDS011;8918;52.092;5.232;2023-01-13T17:06:13;9.80;;;2.93;;
17598;SDS011;8918;52.092;5.232;2023-01-13T17:08:40;7.50;;;2.33;;
17598;SDS011;8918;52.092;5.232;2023-01-13T17:11:06;7.80;;;1.90;;
17598;SDS011;8918;52.092;5.232;2023-01-13T17:13:32;8.80;;;1.43;;
17598;SDS011;8918;52.092;5.232;2023-01-13T17:15:57;8.67;;;2.50;;